sensor_id;sensor_type;location;lat;lon;timestamp;pressure;altitude;pressure_sealevel;temperature;humidity
64352;BME280;50680;52.626;-8.668;2023-06-04T00:02:07;102358.97;;;13.45;100.00
64352;BME280;50680;52.626;-8.668;2023-06-04T00:04:34;102363.25;;;13.27;100.00
64352;BME280;50680;52.626;-8.668;2023-06-04T00:07:00;102361.38;;;13.10;100.00
64352;BME280;50680;52.626;-8.668;2023-06-04T00:09:27;102360.97;;;12.98;100.00
64352;BME280;50680;52.626;-8.668;2023-06-04T00:11:55;102361.44;;;12.88;100.00
64352;BME280;50680;52.626;-8.668;2023-06-04T00:14:23;102357.47;;;12.77;100.00
64352;BME280;50680;52.626;-8.668;2023-06-04T00:16:49;102368.38;;;12.68;100.00
64352;BME280;50680;52.626;-8.668;2023-06-04T00:19:16;102362.72;;;12.57;100.00
64352;BME280;50680;52.626;-8.668;2023-06-04T00:21:43;102364.63;;;12.53;100.00
64352;BME280;50680;52.626;-8.668;2023-06-04T00:24:11;102370.94;;;12.49;100.00
64352;BME280;50680;52.626;-8.668;2023-06-04T00:26:39;102363.72;;;12.32;100.00
64352;BME280;50680;52.626;-8.668;2023-06-04T00:29:06;102365.13;;;12.19;100.00
64352;BME280;50680;52.626;-8.668;2023-06-04T00:31:33;102362.31;;;12.01;100.00
64352;BME280;50680;52.626;-8.668;2023-06-04T00:34:00;102364.44;;;11.90;100.00
64352;BME280;50680;52.626;-8.668;2023-06-04T00:36:27;102358.50;;;11.85;100.00
64352;BME280;50680;52.626;-8.668;2023-06-04T00:38:54;102355.34;;;11.77;100.00
64352;BME280;50680;52.626;-8.668;2023-06-04T00:41:20;102358.34;;;11.66;100.00
64352;BME280;50680;52.626;-8.668;2023-06-04T00:43:47;102359.78;;;11.51;100.00
64352;BME280;50680;52.626;-8.668;2023-06-04T00:46:27;102358.56;;;11.36;100.00
64352;BME280;50680;52.626;-8.668;2023-06-04T00:48:55;102357.94;;;11.29;100.00
64352;BME280;50680;52.626;-8.668;2023-06-04T00:51:22;102357.81;;;11.33;100.00
64352;BME280;50680;52.626;-8.668;2023-06-04T00:53:49;102360.25;;;11.39;100.00
64352;BME280;50680;52.626;-8.668;2023-06-04T00:56:17;102348.13;;;11.35;100.00
64352;BME280;50680;52.626;-8.668;2023-06-04T00:58:44;102348.06;;;11.36;100.00
64352;BME280;50680;52.626;-8.668;2023-06-04T01:03:54;102344.41;;;11.17;100.00
64352;BME280;50680;52.626;-8.668;2023-06-04T01:08:51;102339.97;;;10.94;100.00
64352;BME280;50680;52.626;-8.668;2023-06-04T01:11:34;102343.81;;;10.83;100.00
64352;BME280;50680;52.626;-8.668;2023-06-04T01:14:03;102341.66;;;10.69;100.00
64352;BME280;50680;52.626;-8.668;2023-06-04T01:16:36;102339.50;;;10.56;100.00
64352;BME280;50680;52.626;-8.668;2023-06-04T01:19:34;102340.91;;;10.39;100.00
64352;BME280;50680;52.626;-8.668;2023-06-04T01:22:17;102354.72;;;10.16;100.00
64352;BME280;50680;52.626;-8.668;2023-06-04T01:24:53;102355.09;;;10.04;100.00
64352;BME280;50680;52.626;-8.668;2023-06-04T01:27:23;102348.41;;;9.93;100.00
64352;BME280;50680;52.626;-8.668;2023-06-04T01:29:50;102346.97;;;9.83;100.00
64352;BME280;50680;52.626;-8.668;2023-06-04T01:32:18;102348.00;;;9.77;100.00
64352;BME280;50680;52.626;-8.668;2023-06-04T01:34:46;102342.16;;;9.69;100.00
64352;BME280;50680;52.626;-8.668;2023-06-04T01:37:13;102344.09;;;9.63;100.00
64352;BME280;50680;52.626;-8.668;2023-06-04T01:39:40;102343.25;;;9.62;100.00
64352;BME280;50680;52.626;-8.668;2023-06-04T01:42:08;102341.88;;;9.49;100.00
64352;BME280;50680;52.626;-8.668;2023-06-04T01:44:35;102347.34;;;9.39;100.00
64352;BME280;50680;52.626;-8.668;2023-06-04T01:47:02;102351.09;;;9.31;100.00
64352;BME280;50680;52.626;-8.668;2023-06-04T01:49:29;102350.28;;;9.29;100.00
64352;BME280;50680;52.626;-8.668;2023-06-04T01:51:56;102344.91;;;9.33;100.00
64352;BME280;50680;52.626;-8.668;2023-06-04T01:54:23;102347.69;;;9.27;100.00
64352;BME280;50680;52.626;-8.668;2023-06-04T01:56:49;102344.34;;;9.22;100.00
64352;BME280;50680;52.626;-8.668;2023-06-04T01:59:16;102346.06;;;9.23;100.00
64352;BME280;50680;52.626;-8.668;2023-06-04T02:01:43;102349.50;;;9.25;100.00
64352;BME280;50680;52.626;-8.668;2023-06-04T02:04:10;102345.03;;;9.29;100.00
64352;BME280;50680;52.626;-8.668;2023-06-04T02:06:37;102354.66;;;9.28;100.00
64352;BME280;50680;52.626;-8.668;2023-06-04T02:09:04;102350.66;;;9.15;100.00
64352;BME280;50680;52.626;-8.668;2023-06-04T02:11:31;102354.53;;;9.01;100.00
64352;BME280;50680;52.626;-8.668;2023-06-04T02:13:58;102356.50;;;8.92;100.00
64352;BME280;50680;52.626;-8.668;2023-06-04T02:16:24;102355.81;;;8.85;100.00
64352;BME280;50680;52.626;-8.668;2023-06-04T02:18:51;102354.41;;;8.70;100.00
64352;BME280;50680;52.626;-8.668;2023-06-04T02:21:19;102367.75;;;8.59;100.00
64352;BME280;50680;52.626;-8.668;2023-06-04T02:23:45;102362.78;;;8.50;100.00
64352;BME280;50680;52.626;-8.668;2023-06-04T02:26:12;102359.44;;;8.43;100.00
64352;BME280;50680;52.626;-8.668;2023-06-04T02:28:39;102358.66;;;8.38;100.00
64352;BME280;50680;52.626;-8.668;2023-06-04T02:31:06;102358.84;;;8.31;100.00
64352;BME280;50680;52.626;-8.668;2023-06-04T02:33:33;102355.66;;;8.18;100.00
64352;BME280;50680;52.626;-8.668;2023-06-04T02:36:00;102351.50;;;8.09;100.00
64352;BME280;50680;52.626;-8.668;2023-06-04T02:38:27;102360.44;;;7.97;100.00
64352;BME280;50680;52.626;-8.668;2023-06-04T02:40:54;102354.44;;;7.94;100.00
64352;BME280;50680;52.626;-8.668;2023-06-04T02:43:21;102357.09;;;7.90;100.00
64352;BME280;50680;52.626;-8.668;2023-06-04T02:45:48;102357.19;;;7.89;100.00
64352;BME280;50680;52.626;-8.668;2023-06-04T02:48:15;102347.63;;;7.86;100.00
64352;BME280;50680;52.626;-8.668;2023-06-04T02:50:42;102347.75;;;7.80;100.00
64352;BME280;50680;52.626;-8.668;2023-06-04T02:53:09;102347.00;;;7.75;100.00
64352;BME280;50680;52.626;-8.668;2023-06-04T02:55:35;102351.53;;;7.67;100.00
64352;BME280;50680;52.626;-8.668;2023-06-04T02:58:02;102350.78;;;7.62;100.00
64352;BME280;50680;52.626;-8.668;2023-06-04T03:00:29;102356.94;;;7.58;100.00
64352;BME280;50680;52.626;-8.668;2023-06-04T03:02:56;102355.34;;;7.50;100.00
64352;BME280;50680;52.626;-8.668;2023-06-04T03:05:28;102355.38;;;7.49;100.00
64352;BME280;50680;52.626;-8.668;2023-06-04T03:08:00;102351.97;;;7.45;100.00
64352;BME280;50680;52.626;-8.668;2023-06-04T03:10:27;102350.28;;;7.43;100.00
64352;BME280;50680;52.626;-8.668;2023-06-04T03:12:54;102352.91;;;7.41;100.00
64352;BME280;50680;52.626;-8.668;2023-06-04T03:15:21;102352.97;;;7.38;100.00
64352;BME280;50680;52.626;-8.668;2023-06-04T03:17:48;102350.50;;;7.32;100.00
64352;BME280;50680;52.626;-8.668;2023-06-04T03:20:15;102354.03;;;7.28;100.00
64352;BME280;50680;52.626;-8.668;2023-06-04T03:22:42;102348.00;;;7.26;100.00
64352;BME280;50680;52.626;-8.668;2023-06-04T03:25:09;102348.97;;;7.22;100.00
64352;BME280;50680;52.626;-8.668;2023-06-04T03:27:36;102347.31;;;7.16;100.00
64352;BME280;50680;52.626;-8.668;2023-06-04T03:30:03;102343.84;;;7.15;100.00
64352;BME280;50680;52.626;-8.668;2023-06-04T03:32:30;102346.50;;;7.12;100.00
64352;BME280;50680;52.626;-8.668;2023-06-04T03:34:57;102349.03;;;7.17;100.00
64352;BME280;50680;52.626;-8.668;2023-06-04T03:37:24;102341.34;;;7.09;100.00
64352;BME280;50680;52.626;-8.668;2023-06-04T03:39:52;102347.56;;;7.02;100.00
64352;BME280;50680;52.626;-8.668;2023-06-04T03:42:19;102348.56;;;6.95;100.00
64352;BME280;50680;52.626;-8.668;2023-06-04T03:44:46;102338.22;;;6.90;100.00
64352;BME280;50680;52.626;-8.668;2023-06-04T03:47:13;102344.34;;;6.88;100.00
64352;BME280;50680;52.626;-8.668;2023-06-04T03:49:40;102347.91;;;6.84;100.00
64352;BME280;50680;52.626;-8.668;2023-06-04T03:52:07;102347.09;;;6.80;100.00
64352;BME280;50680;52.626;-8.668;2023-06-04T03:54:34;102347.16;;;6.77;100.00
64352;BME280;50680;52.626;-8.668;2023-06-04T03:57:00;102348.00;;;6.77;100.00
64352;BME280;50680;52.626;-8.668;2023-06-04T03:59:29;102353.25;;;6.74;100.00
64352;BME280;50680;52.626;-8.668;2023-06-04T04:01:57;102343.78;;;6.70;100.00
64352;BME280;50680;52.626;-8.668;2023-06-04T04:04:24;102339.50;;;6.66;100.00
64352;BME280;50680;52.626;-8.668;2023-06-04T04:06:51;102341.25;;;6.66;100.00
64352;BME280;50680;52.626;-8.668;2023-06-04T04:09:17;102347.50;;;6.54;100.00
64352;BME280;50680;52.626;-8.668;2023-06-04T04:11:44;102346.69;;;6.52;100.00
64352;BME280;50680;52.626;-8.668;2023-06-04T04:14:11;102340.69;;;6.45;100.00
64352;BME280;50680;52.626;-8.668;2023-06-04T04:16:38;102341.66;;;6.41;100.00
64352;BME280;50680;52.626;-8.668;2023-06-04T04:19:05;102340.84;;;6.37;100.00
64352;BME280;50680;52.626;-8.668;2023-06-04T04:21:37;102340.88;;;6.34;100.00
64352;BME280;50680;52.626;-8.668;2023-06-04T04:24:04;102342.63;;;6.34;100.00
64352;BME280;50680;52.626;-8.668;2023-06-04T04:26:31;102344.38;;;6.33;100.00
64352;BME280;50680;52.626;-8.668;2023-06-04T04:28:58;102345.22;;;6.35;100.00
64352;BME280;50680;52.626;-8.668;2023-06-04T04:31:27;102349.53;;;6.36;100.00
64352;BME280;50680;52.626;-8.668;2023-06-04T04:33:57;102345.19;;;6.37;100.00
64352;BME280;50680;52.626;-8.668;2023-06-04T04:36:24;102351.22;;;6.39;100.00
64352;BME280;50680;52.626;-8.668;2023-06-04T04:38:50;102359.75;;;6.49;100.00
64352;BME280;50680;52.626;-8.668;2023-06-04T04:41:21;102362.28;;;6.55;100.00
64352;BME280;50680;52.626;-8.668;2023-06-04T04:43:52;102366.38;;;6.71;100.00
64352;BME280;50680;52.626;-8.668;2023-06-04T04:46:19;102367.75;;;6.92;100.00
64352;BME280;50680;52.626;-8.668;2023-06-04T04:48:46;102362.31;;;7.03;100.00
64352;BME280;50680;52.626;-8.668;2023-06-04T04:51:13;102364.75;;;7.12;100.00
64352;BME280;50680;52.626;-8.668;2023-06-04T04:53:39;102369.94;;;7.15;100.00
64352;BME280;50680;52.626;-8.668;2023-06-04T04:56:06;102363.75;;;7.20;100.00
64352;BME280;50680;52.626;-8.668;2023-06-04T04:58:33;102362.81;;;7.25;100.00
64352;BME280;50680;52.626;-8.668;2023-06-04T05:01:00;102360.94;;;7.32;100.00
64352;BME280;50680;52.626;-8.668;2023-06-04T05:03:27;102369.44;;;7.40;100.00
64352;BME280;50680;52.626;-8.668;2023-06-04T05:05:54;102370.88;;;7.57;100.00
64352;BME280;50680;52.626;-8.668;2023-06-04T05:08:20;102365.53;;;7.63;100.00
64352;BME280;50680;52.626;-8.668;2023-06-04T05:10:48;102369.78;;;7.68;100.00
64352;BME280;50680;52.626;-8.668;2023-06-04T05:13:15;102369.59;;;7.76;100.00
64352;BME280;50680;52.626;-8.668;2023-06-04T05:15:42;102376.34;;;7.88;100.00
64352;BME280;50680;52.626;-8.668;2023-06-04T05:18:09;102380.53;;;7.95;100.00
64352;BME280;50680;52.626;-8.668;2023-06-04T05:20:36;102374.34;;;7.99;100.00
64352;BME280;50680;52.626;-8.668;2023-06-04T05:23:04;102375.16;;;8.03;100.00
64352;BME280;50680;52.626;-8.668;2023-06-04T05:25:31;102376.38;;;8.25;100.00
64352;BME280;50680;52.626;-8.668;2023-06-04T05:27:58;102375.00;;;8.84;100.00
64352;BME280;50680;52.626;-8.668;2023-06-04T05:30:25;102372.84;;;9.64;100.00
64352;BME280;50680;52.626;-8.668;2023-06-04T05:32:52;102376.44;;;10.48;100.00
64352;BME280;50680;52.626;-8.668;2023-06-04T05:35:20;102367.28;;;11.37;100.00
64352;BME280;50680;52.626;-8.668;2023-06-04T05:37:47;102372.78;;;12.25;100.00
64352;BME280;50680;52.626;-8.668;2023-06-04T05:40:21;102368.50;;;13.27;100.00
64352;BME280;50680;52.626;-8.668;2023-06-04T05:42:48;102371.59;;;14.14;100.00
64352;BME280;50680;52.626;-8.668;2023-06-04T05:45:15;102367.03;;;15.07;100.00
64352;BME280;50680;52.626;-8.668;2023-06-04T05:47:42;102361.78;;;15.56;100.00
64352;BME280;50680;52.626;-8.668;2023-06-04T05:50:09;102359.84;;;16.07;100.00
64352;BME280;50680;52.626;-8.668;2023-06-04T05:52:36;102359.00;;;16.39;100.00
64352;BME280;50680;52.626;-8.668;2023-06-04T05:55:05;102363.69;;;16.64;100.00
64352;BME280;50680;52.626;-8.668;2023-06-04T05:57:34;102366.06;;;16.84;100.00
64352;BME280;50680;52.626;-8.668;2023-06-04T06:00:02;102367.44;;;17.20;100.00
64352;BME280;50680;52.626;-8.668;2023-06-04T06:02:29;102364.56;;;17.52;100.00
64352;BME280;50680;52.626;-8.668;2023-06-04T06:04:59;102365.91;;;17.74;100.00
64352;BME280;50680;52.626;-8.668;2023-06-04T06:07:26;102370.44;;;17.86;100.00
64352;BME280;50680;52.626;-8.668;2023-06-04T06:09:53;102377.13;;;18.06;100.00
64352;BME280;50680;52.626;-8.668;2023-06-04T06:12:19;102375.75;;;18.40;100.00
64352;BME280;50680;52.626;-8.668;2023-06-04T06:14:46;102367.94;;;18.92;100.00
64352;BME280;50680;52.626;-8.668;2023-06-04T06:17:13;102372.31;;;19.31;100.00
64352;BME280;50680;52.626;-8.668;2023-06-04T06:19:40;102356.66;;;19.89;100.00
64352;BME280;50680;52.626;-8.668;2023-06-04T06:22:06;102364.13;;;20.33;100.00
64352;BME280;50680;52.626;-8.668;2023-06-04T06:24:33;102367.03;;;20.89;100.00
64352;BME280;50680;52.626;-8.668;2023-06-04T06:27:00;102364.88;;;21.17;98.79
64352;BME280;50680;52.626;-8.668;2023-06-04T06:29:27;102362.69;;;21.22;94.50
64352;BME280;50680;52.626;-8.668;2023-06-04T06:31:55;102352.38;;;21.40;92.51
64352;BME280;50680;52.626;-8.668;2023-06-04T06:34:21;102357.59;;;21.41;87.67
64352;BME280;50680;52.626;-8.668;2023-06-04T06:36:48;102360.00;;;21.11;83.98
64352;BME280;50680;52.626;-8.668;2023-06-04T06:39:16;102359.50;;;20.59;84.66
64352;BME280;50680;52.626;-8.668;2023-06-04T06:41:44;102355.00;;;20.48;87.25
64352;BME280;50680;52.626;-8.668;2023-06-04T06:44:11;102361.81;;;20.52;89.40
64352;BME280;50680;52.626;-8.668;2023-06-04T06:46:38;102364.47;;;20.88;91.49
64352;BME280;50680;52.626;-8.668;2023-06-04T06:49:05;102360.25;;;21.19;89.80
64352;BME280;50680;52.626;-8.668;2023-06-04T06:51:32;102359.03;;;21.23;81.27
64352;BME280;50680;52.626;-8.668;2023-06-04T06:53:59;102353.00;;;21.10;84.91
64352;BME280;50680;52.626;-8.668;2023-06-04T06:56:26;102356.16;;;21.37;88.25
64352;BME280;50680;52.626;-8.668;2023-06-04T06:58:53;102355.66;;;21.66;85.93
64352;BME280;50680;52.626;-8.668;2023-06-04T07:01:20;102359.19;;;21.44;83.38
64352;BME280;50680;52.626;-8.668;2023-06-04T07:03:47;102349.63;;;21.30;85.08
64352;BME280;50680;52.626;-8.668;2023-06-04T07:06:15;102354.69;;;21.33;84.93
64352;BME280;50680;52.626;-8.668;2023-06-04T07:08:42;102357.22;;;21.80;87.97
64352;BME280;50680;52.626;-8.668;2023-06-04T07:11:09;102354.53;;;22.35;85.24
64352;BME280;50680;52.626;-8.668;2023-06-04T07:13:39;102360.84;;;22.97;83.75
64352;BME280;50680;52.626;-8.668;2023-06-04T07:16:06;102362.09;;;23.55;80.76
64352;BME280;50680;52.626;-8.668;2023-06-04T07:18:33;102356.75;;;23.55;73.59
64352;BME280;50680;52.626;-8.668;2023-06-04T07:21:00;102359.81;;;23.40;70.00
64352;BME280;50680;52.626;-8.668;2023-06-04T07:23:27;102358.31;;;22.75;70.18
64352;BME280;50680;52.626;-8.668;2023-06-04T07:25:54;102359.97;;;22.66;72.55
64352;BME280;50680;52.626;-8.668;2023-06-04T07:28:21;102356.50;;;22.54;70.68
64352;BME280;50680;52.626;-8.668;2023-06-04T07:30:48;102368.56;;;22.48;72.69
64352;BME280;50680;52.626;-8.668;2023-06-04T07:33:15;102364.34;;;22.67;73.34
64352;BME280;50680;52.626;-8.668;2023-06-04T07:35:41;102363.53;;;22.97;69.28
64352;BME280;50680;52.626;-8.668;2023-06-04T07:38:08;102354.91;;;22.94;66.02
64352;BME280;50680;52.626;-8.668;2023-06-04T07:40:35;102360.25;;;23.15;67.45
64352;BME280;50680;52.626;-8.668;2023-06-04T07:43:02;102356.25;;;23.71;65.42
64352;BME280;50680;52.626;-8.668;2023-06-04T07:45:29;102366.50;;;24.35;63.47
64352;BME280;50680;52.626;-8.668;2023-06-04T07:48:01;102361.28;;;24.44;59.20
64352;BME280;50680;52.626;-8.668;2023-06-04T07:50:28;102359.84;;;24.49;58.49
64352;BME280;50680;52.626;-8.668;2023-06-04T07:52:57;102364.22;;;24.80;58.83
64352;BME280;50680;52.626;-8.668;2023-06-04T07:55:24;102357.34;;;25.14;55.68
64352;BME280;50680;52.626;-8.668;2023-06-04T07:57:51;102356.53;;;25.04;51.87
64352;BME280;50680;52.626;-8.668;2023-06-04T08:00:18;102357.69;;;24.92;52.51
64352;BME280;50680;52.626;-8.668;2023-06-04T08:02:45;102359.63;;;25.09;52.61
64352;BME280;50680;52.626;-8.668;2023-06-04T08:05:12;102362.34;;;25.37;51.45
64352;BME280;50680;52.626;-8.668;2023-06-04T08:07:40;102349.84;;;25.74;49.52
64352;BME280;50680;52.626;-8.668;2023-06-04T08:10:08;102352.16;;;25.86;48.86
64352;BME280;50680;52.626;-8.668;2023-06-04T08:12:35;102349.06;;;25.81;46.43
64352;BME280;50680;52.626;-8.668;2023-06-04T08:15:03;102358.97;;;25.63;47.19
64352;BME280;50680;52.626;-8.668;2023-06-04T08:17:30;102351.84;;;25.99;48.41
64352;BME280;50680;52.626;-8.668;2023-06-04T08:19:57;102350.72;;;26.28;46.65
64352;BME280;50680;52.626;-8.668;2023-06-04T08:22:24;102350.41;;;26.67;45.48
64352;BME280;50680;52.626;-8.668;2023-06-04T08:24:51;102345.91;;;26.76;42.79
64352;BME280;50680;52.626;-8.668;2023-06-04T08:27:18;102351.31;;;26.58;42.25
64352;BME280;50680;52.626;-8.668;2023-06-04T08:29:44;102353.63;;;26.53;46.01
64352;BME280;50680;52.626;-8.668;2023-06-04T08:32:11;102355.50;;;26.78;45.63
64352;BME280;50680;52.626;-8.668;2023-06-04T08:34:38;102359.63;;;27.17;44.12
64352;BME280;50680;52.626;-8.668;2023-06-04T08:37:05;102357.88;;;27.42;41.98
64352;BME280;50680;52.626;-8.668;2023-06-04T08:39:32;102358.47;;;27.62;42.13
64352;BME280;50680;52.626;-8.668;2023-06-04T08:42:01;102351.31;;;27.95;41.57
64352;BME280;50680;52.626;-8.668;2023-06-04T08:44:30;102352.47;;;27.85;39.73
64352;BME280;50680;52.626;-8.668;2023-06-04T08:47:04;102352.09;;;27.80;38.66
64352;BME280;50680;52.626;-8.668;2023-06-04T08:49:35;102349.06;;;27.74;38.73
64352;BME280;50680;52.626;-8.668;2023-06-04T08:52:05;102360.22;;;27.88;39.39
64352;BME280;50680;52.626;-8.668;2023-06-04T08:54:33;102355.19;;;28.01;39.74
64352;BME280;50680;52.626;-8.668;2023-06-04T08:57:00;102353.72;;;28.31;41.46
64352;BME280;50680;52.626;-8.668;2023-06-04T08:59:27;102351.84;;;28.48;39.11
64352;BME280;50680;52.626;-8.668;2023-06-04T09:01:55;102355.56;;;28.64;38.51
64352;BME280;50680;52.626;-8.668;2023-06-04T09:04:23;102351.34;;;28.20;38.01
64352;BME280;50680;52.626;-8.668;2023-06-04T09:06:49;102345.59;;;28.48;39.30
64352;BME280;50680;52.626;-8.668;2023-06-04T09:09:17;102348.81;;;28.43;38.00
64352;BME280;50680;52.626;-8.668;2023-06-04T09:11:51;102339.38;;;28.14;39.39
64352;BME280;50680;52.626;-8.668;2023-06-04T09:14:19;102346.78;;;28.04;39.50
64352;BME280;50680;52.626;-8.668;2023-06-04T09:16:53;102342.34;;;27.70;41.64
64352;BME280;50680;52.626;-8.668;2023-06-04T09:19:22;102340.28;;;27.64;41.65
64352;BME280;50680;52.626;-8.668;2023-06-04T09:21:50;102354.03;;;27.45;42.05
64352;BME280;50680;52.626;-8.668;2023-06-04T09:24:22;102340.97;;;26.89;42.94
64352;BME280;50680;52.626;-8.668;2023-06-04T09:26:50;102342.84;;;26.71;46.92
64352;BME280;50680;52.626;-8.668;2023-06-04T09:29:17;102345.31;;;26.90;47.35
64352;BME280;50680;52.626;-8.668;2023-06-04T09:31:45;102347.41;;;27.31;46.20
64352;BME280;50680;52.626;-8.668;2023-06-04T09:34:13;102346.94;;;27.44;48.50
64352;BME280;50680;52.626;-8.668;2023-06-04T09:36:41;102342.34;;;27.70;49.32
64352;BME280;50680;52.626;-8.668;2023-06-04T09:39:15;102338.34;;;28.40;51.05
64352;BME280;50680;52.626;-8.668;2023-06-04T09:41:43;102344.63;;;28.57;47.90
64352;BME280;50680;52.626;-8.668;2023-06-04T09:44:10;102346.59;;;28.72;48.19
64352;BME280;50680;52.626;-8.668;2023-06-04T09:46:38;102343.50;;;28.99;50.03
64352;BME280;50680;52.626;-8.668;2023-06-04T09:49:06;102344.06;;;28.70;47.71
64352;BME280;50680;52.626;-8.668;2023-06-04T09:51:33;102340.63;;;29.01;48.33
64352;BME280;50680;52.626;-8.668;2023-06-04T09:54:01;102351.41;;;29.09;47.91
64352;BME280;50680;52.626;-8.668;2023-06-04T09:56:29;102354.81;;;28.95;47.26
64352;BME280;50680;52.626;-8.668;2023-06-04T09:59:00;102348.59;;;28.86;47.12
64352;BME280;50680;52.626;-8.668;2023-06-04T10:01:30;102345.03;;;28.94;48.76
64352;BME280;50680;52.626;-8.668;2023-06-04T10:04:06;102342.41;;;29.25;49.16
64352;BME280;50680;52.626;-8.668;2023-06-04T10:06:35;102350.88;;;29.53;50.68
64352;BME280;50680;52.626;-8.668;2023-06-04T10:09:06;102355.34;;;29.69;47.99
64352;BME280;50680;52.626;-8.668;2023-06-04T10:11:47;102347.97;;;29.94;48.03
64352;BME280;50680;52.626;-8.668;2023-06-04T10:14:21;102355.56;;;29.68;45.58
64352;BME280;50680;52.626;-8.668;2023-06-04T10:16:51;102355.63;;;29.51;45.89
64352;BME280;50680;52.626;-8.668;2023-06-04T10:19:18;102353.22;;;29.65;46.18
64352;BME280;50680;52.626;-8.668;2023-06-04T10:21:47;102357.88;;;29.71;46.98
64352;BME280;50680;52.626;-8.668;2023-06-04T10:24:14;102348.88;;;29.87;44.55
64352;BME280;50680;52.626;-8.668;2023-06-04T10:26:42;102357.66;;;29.57;46.21
64352;BME280;50680;52.626;-8.668;2023-06-04T10:29:09;102352.66;;;29.38;47.84
64352;BME280;50680;52.626;-8.668;2023-06-04T10:31:37;102361.84;;;29.60;47.12
64352;BME280;50680;52.626;-8.668;2023-06-04T10:34:05;102355.44;;;29.61;47.95
64352;BME280;50680;52.626;-8.668;2023-06-04T10:36:44;102357.50;;;29.51;45.79
64352;BME280;50680;52.626;-8.668;2023-06-04T10:39:12;102355.91;;;29.33;46.02
64352;BME280;50680;52.626;-8.668;2023-06-04T10:41:39;102353.47;;;28.99;46.13
64352;BME280;50680;52.626;-8.668;2023-06-04T10:44:06;102365.09;;;28.99;45.00
64352;BME280;50680;52.626;-8.668;2023-06-04T10:46:40;102353.53;;;28.74;45.24
64352;BME280;50680;52.626;-8.668;2023-06-04T10:49:10;102355.03;;;28.77;45.04
64352;BME280;50680;52.626;-8.668;2023-06-04T10:51:41;102352.84;;;28.47;45.93
64352;BME280;50680;52.626;-8.668;2023-06-04T10:54:10;102352.53;;;28.26;47.74
64352;BME280;50680;52.626;-8.668;2023-06-04T10:56:48;102346.13;;;28.10;46.36
64352;BME280;50680;52.626;-8.668;2023-06-04T10:59:16;102349.66;;;28.19;46.87
64352;BME280;50680;52.626;-8.668;2023-06-04T11:01:44;102351.50;;;28.27;46.71
64352;BME280;50680;52.626;-8.668;2023-06-04T11:04:21;102346.13;;;28.60;48.10
64352;BME280;50680;52.626;-8.668;2023-06-04T11:07:09;102347.44;;;28.72;46.61
64352;BME280;50680;52.626;-8.668;2023-06-04T11:09:37;102352.50;;;28.75;45.77
64352;BME280;50680;52.626;-8.668;2023-06-04T11:12:13;102350.31;;;28.54;45.58
64352;BME280;50680;52.626;-8.668;2023-06-04T11:14:40;102349.00;;;28.17;46.29
64352;BME280;50680;52.626;-8.668;2023-06-04T11:17:12;102354.88;;;28.54;46.22
64352;BME280;50680;52.626;-8.668;2023-06-04T11:19:39;102344.41;;;28.50;45.49
64352;BME280;50680;52.626;-8.668;2023-06-04T11:22:10;102343.72;;;28.81;46.55
64352;BME280;50680;52.626;-8.668;2023-06-04T11:24:39;102346.25;;;28.83;44.93
64352;BME280;50680;52.626;-8.668;2023-06-04T11:27:05;102357.16;;;28.98;45.73
64352;BME280;50680;52.626;-8.668;2023-06-04T11:29:43;102345.22;;;28.84;43.88
64352;BME280;50680;52.626;-8.668;2023-06-04T11:32:21;102339.34;;;28.72;43.75
64352;BME280;50680;52.626;-8.668;2023-06-04T11:34:48;102349.81;;;28.50;44.67
64352;BME280;50680;52.626;-8.668;2023-06-04T11:37:15;102344.75;;;28.47;43.91
64352;BME280;50680;52.626;-8.668;2023-06-04T11:39:42;102340.88;;;28.50;45.42
64352;BME280;50680;52.626;-8.668;2023-06-04T11:42:11;102360.97;;;28.64;46.73
64352;BME280;50680;52.626;-8.668;2023-06-04T11:44:38;102352.84;;;28.39;48.15
64352;BME280;50680;52.626;-8.668;2023-06-04T11:47:08;102347.44;;;28.39;46.80
64352;BME280;50680;52.626;-8.668;2023-06-04T11:49:36;102360.66;;;28.59;47.77
64352;BME280;50680;52.626;-8.668;2023-06-04T11:52:03;102348.66;;;28.69;44.89
64352;BME280;50680;52.626;-8.668;2023-06-04T11:54:32;102352.88;;;28.64;44.94
64352;BME280;50680;52.626;-8.668;2023-06-04T11:57:03;102353.72;;;28.56;46.39
64352;BME280;50680;52.626;-8.668;2023-06-04T11:59:32;102353.72;;;28.64;47.03
64352;BME280;50680;52.626;-8.668;2023-06-04T12:01:58;102350.16;;;28.47;47.31
64352;BME280;50680;52.626;-8.668;2023-06-04T12:04:29;102350.31;;;28.54;47.65
64352;BME280;50680;52.626;-8.668;2023-06-04T12:06:58;102354.03;;;28.78;49.38
64352;BME280;50680;52.626;-8.668;2023-06-04T12:12:54;102353.22;;;28.69;50.86
64352;BME280;50680;52.626;-8.668;2023-06-04T12:15:22;102343.59;;;28.66;51.23
64352;BME280;50680;52.626;-8.668;2023-06-04T12:17:53;102348.09;;;28.82;51.53
64352;BME280;50680;52.626;-8.668;2023-06-04T12:23:02;102339.63;;;28.94;50.91
64352;BME280;50680;52.626;-8.668;2023-06-04T12:25:29;102326.00;;;28.87;51.49
64352;BME280;50680;52.626;-8.668;2023-06-04T12:27:57;102341.09;;;29.21;53.24
64352;BME280;50680;52.626;-8.668;2023-06-04T12:30:35;102334.63;;;28.74;49.88
64352;BME280;50680;52.626;-8.668;2023-06-04T12:33:02;102339.53;;;28.54;52.99
64352;BME280;50680;52.626;-8.668;2023-06-04T12:35:30;102338.03;;;28.35;53.41
64352;BME280;50680;52.626;-8.668;2023-06-04T12:37:57;102344.78;;;28.56;52.73
64352;BME280;50680;52.626;-8.668;2023-06-04T12:40:24;102336.47;;;28.65;53.66
64352;BME280;50680;52.626;-8.668;2023-06-04T12:42:51;102327.22;;;28.43;48.70
64352;BME280;50680;52.626;-8.668;2023-06-04T12:45:18;102331.63;;;27.95;52.70
64352;BME280;50680;52.626;-8.668;2023-06-04T12:47:45;102328.22;;;28.01;54.34
64352;BME280;50680;52.626;-8.668;2023-06-04T12:50:14;102322.19;;;28.16;51.72
64352;BME280;50680;52.626;-8.668;2023-06-04T12:52:41;102328.06;;;28.44;52.38
64352;BME280;50680;52.626;-8.668;2023-06-04T12:55:08;102333.44;;;28.68;51.30